sensor_id;sensor_type;location;lat;lon;timestamp;temperature;humidity
44707;DHT22;30433;45.596;8.408;2023-04-03T00:03:37;7.30;90.40
44707;DHT22;30433;45.596;8.408;2023-04-03T00:09:40;7.10;91.20
44707;DHT22;30433;45.596;8.408;2023-04-03T00:15:42;6.80;91.40
44707;DHT22;30433;45.596;8.408;2023-04-03T00:21:44;6.90;91.30
44707;DHT22;30433;45.596;8.408;2023-04-03T00:27:47;6.90;90.90
44707;DHT22;30433;45.596;8.408;2023-04-03T00:33:49;7.00;91.20
44707;DHT22;30433;45.596;8.408;2023-04-03T00:39:51;6.90;91.40
44707;DHT22;30433;45.596;8.408;2023-04-03T00:45:54;6.70;91.50
44707;DHT22;30433;45.596;8.408;2023-04-03T00:51:56;6.70;91.50
44707;DHT22;30433;45.596;8.408;2023-04-03T00:57:59;6.70;91.60
44707;DHT22;30433;45.596;8.408;2023-04-03T01:04:04;7.10;91.00
44707;DHT22;30433;45.596;8.408;2023-04-03T01:10:07;7.20;90.30
44707;DHT22;30433;45.596;8.408;2023-04-03T01:16:10;6.90;91.20
44707;DHT22;30433;45.596;8.408;2023-04-03T01:22:16;6.90;91.20
44707;DHT22;30433;45.596;8.408;2023-04-03T01:28:23;6.70;91.30
44707;DHT22;30433;45.596;8.408;2023-04-03T01:34:27;6.50;91.40
44707;DHT22;30433;45.596;8.408;2023-04-03T01:40:29;6.50;91.70
44707;DHT22;30433;45.596;8.408;2023-04-03T01:46:31;6.50;91.70
44707;DHT22;30433;45.596;8.408;2023-04-03T01:52:34;6.50;91.70
44707;DHT22;30433;45.596;8.408;2023-04-03T01:58:36;5.70;92.20
44707;DHT22;30433;45.596;8.408;2023-04-03T02:04:38;6.30;91.70
44707;DHT22;30433;45.596;8.408;2023-04-03T02:10:42;6.20;91.80
44707;DHT22;30433;45.596;8.408;2023-04-03T02:16:43;6.00;91.60
44707;DHT22;30433;45.596;8.408;2023-04-03T02:22:45;5.30;92.80
44707;DHT22;30433;45.596;8.408;2023-04-03T02:28:49;5.90;92.20
44707;DHT22;30433;45.596;8.408;2023-04-03T02:34:50;5.90;92.10
44707;DHT22;30433;45.596;8.408;2023-04-03T02:40:52;5.80;92.00
44707;DHT22;30433;45.596;8.408;2023-04-03T02:46:55;5.80;91.50
44707;DHT22;30433;45.596;8.408;2023-04-03T02:52:57;5.80;91.00
44707;DHT22;30433;45.596;8.408;2023-04-03T02:58:59;5.90;91.00
44707;DHT22;30433;45.596;8.408;2023-04-03T03:05:02;5.90;91.20
44707;DHT22;30433;45.596;8.408;2023-04-03T03:11:05;6.20;90.60
44707;DHT22;30433;45.596;8.408;2023-04-03T03:17:07;5.90;90.70
44707;DHT22;30433;45.596;8.408;2023-04-03T03:23:10;5.90;91.30
44707;DHT22;30433;45.596;8.408;2023-04-03T03:29:12;5.90;91.40
44707;DHT22;30433;45.596;8.408;2023-04-03T03:35:14;5.90;91.60
44707;DHT22;30433;45.596;8.408;2023-04-03T03:41:17;5.50;91.40
44707;DHT22;30433;45.596;8.408;2023-04-03T03:47:19;5.90;90.80
44707;DHT22;30433;45.596;8.408;2023-04-03T03:53:21;5.90;90.80
44707;DHT22;30433;45.596;8.408;2023-04-03T03:59:24;6.20;90.30
44707;DHT22;30433;45.596;8.408;2023-04-03T04:05:26;6.10;90.20
44707;DHT22;30433;45.596;8.408;2023-04-03T04:11:28;6.40;88.40
44707;DHT22;30433;45.596;8.408;2023-04-03T04:17:31;6.50;89.70
44707;DHT22;30433;45.596;8.408;2023-04-03T04:23:35;6.30;89.40
44707;DHT22;30433;45.596;8.408;2023-04-03T04:29:37;6.30;89.60
44707;DHT22;30433;45.596;8.408;2023-04-03T04:35:40;6.60;86.60
44707;DHT22;30433;45.596;8.408;2023-04-03T04:41:43;6.70;85.80
44707;DHT22;30433;45.596;8.408;2023-04-03T04:47:45;6.80;86.30
44707;DHT22;30433;45.596;8.408;2023-04-03T04:53:48;6.80;86.50
44707;DHT22;30433;45.596;8.408;2023-04-03T04:59:50;6.90;85.70
44707;DHT22;30433;45.596;8.408;2023-04-03T05:05:51;6.80;85.00
44707;DHT22;30433;45.596;8.408;2023-04-03T05:11:55;6.40;87.40
44707;DHT22;30433;45.596;8.408;2023-04-03T05:17:57;6.90;86.10
44707;DHT22;30433;45.596;8.408;2023-04-03T05:23:59;6.90;86.20
44707;DHT22;30433;45.596;8.408;2023-04-03T05:30:05;7.50;84.30
44707;DHT22;30433;45.596;8.408;2023-04-03T05:36:07;7.70;84.50
44707;DHT22;30433;45.596;8.408;2023-04-03T05:42:09;8.60;85.30
44707;DHT22;30433;45.596;8.408;2023-04-03T05:48:13;9.10;84.20
44707;DHT22;30433;45.596;8.408;2023-04-03T05:54:16;9.50;82.10
44707;DHT22;30433;45.596;8.408;2023-04-03T06:00:19;9.80;82.20
44707;DHT22;30433;45.596;8.408;2023-04-03T06:06:22;9.80;80.60
44707;DHT22;30433;45.596;8.408;2023-04-03T06:12:24;9.90;82.60
44707;DHT22;30433;45.596;8.408;2023-04-03T06:18:26;10.30;79.20
44707;DHT22;30433;45.596;8.408;2023-04-03T06:24:30;10.70;79.20
44707;DHT22;30433;45.596;8.408;2023-04-03T06:30:31;10.80;79.10
44707;DHT22;30433;45.596;8.408;2023-04-03T06:36:33;10.70;82.70
44707;DHT22;30433;45.596;8.408;2023-04-03T06:42:38;11.00;81.00
44707;DHT22;30433;45.596;8.408;2023-04-03T06:48:40;11.70;79.60
44707;DHT22;30433;45.596;8.408;2023-04-03T06:54:42;11.90;75.30
44707;DHT22;30433;45.596;8.408;2023-04-03T07:00:45;12.20;76.80
44707;DHT22;30433;45.596;8.408;2023-04-03T07:06:47;12.80;77.40
44707;DHT22;30433;45.596;8.408;2023-04-03T07:12:49;12.90;74.10
44707;DHT22;30433;45.596;8.408;2023-04-03T07:18:52;13.60;76.50
44707;DHT22;30433;45.596;8.408;2023-04-03T07:24:54;13.50;72.70
44707;DHT22;30433;45.596;8.408;2023-04-03T07:30:59;13.90;73.60
44707;DHT22;30433;45.596;8.408;2023-04-03T07:37:03;13.70;72.70
44707;DHT22;30433;45.596;8.408;2023-04-03T07:43:05;14.00;73.90
44707;DHT22;30433;45.596;8.408;2023-04-03T07:49:07;14.20;70.80
44707;DHT22;30433;45.596;8.408;2023-04-03T07:55:10;15.20;70.30
44707;DHT22;30433;45.596;8.408;2023-04-03T08:08:00;14.40;68.00
44707;DHT22;30433;45.596;8.408;2023-04-03T08:14:03;14.70;67.40
44707;DHT22;30433;45.596;8.408;2023-04-03T08:20:06;14.70;67.60
44707;DHT22;30433;45.596;8.408;2023-04-03T08:26:09;15.70;73.70
44707;DHT22;30433;45.596;8.408;2023-04-03T08:32:12;16.00;70.80
44707;DHT22;30433;45.596;8.408;2023-04-03T08:38:14;16.00;72.10
44707;DHT22;30433;45.596;8.408;2023-04-03T08:44:18;16.00;75.40
44707;DHT22;30433;45.596;8.408;2023-04-03T08:50:26;16.40;73.70
44707;DHT22;30433;45.596;8.408;2023-04-03T08:56:30;16.20;76.30
44707;DHT22;30433;45.596;8.408;2023-04-03T09:02:33;15.50;79.60
44707;DHT22;30433;45.596;8.408;2023-04-03T09:08:40;15.60;81.00
44707;DHT22;30433;45.596;8.408;2023-04-03T09:14:45;15.60;81.50
44707;DHT22;30433;45.596;8.408;2023-04-03T09:20:49;15.50;79.30
44707;DHT22;30433;45.596;8.408;2023-04-03T09:26:57;15.90;80.60
44707;DHT22;30433;45.596;8.408;2023-04-03T09:33:00;16.00;79.60
44707;DHT22;30433;45.596;8.408;2023-04-03T09:39:03;16.20;77.90
44707;DHT22;30433;45.596;8.408;2023-04-03T09:45:21;16.60;78.00
44707;DHT22;30433;45.596;8.408;2023-04-03T09:51:24;16.20;77.30
44707;DHT22;30433;45.596;8.408;2023-04-03T09:57:28;16.60;82.20
44707;DHT22;30433;45.596;8.408;2023-04-03T10:03:35;16.80;83.10
44707;DHT22;30433;45.596;8.408;2023-04-03T10:09:39;16.80;81.90
44707;DHT22;30433;45.596;8.408;2023-04-03T10:15:44;16.80;81.00
44707;DHT22;30433;45.596;8.408;2023-04-03T10:21:49;17.10;82.90
44707;DHT22;30433;45.596;8.408;2023-04-03T10:27:53;17.00;83.30
44707;DHT22;30433;45.596;8.408;2023-04-03T10:33:59;17.30;79.40
44707;DHT22;30433;45.596;8.408;2023-04-03T10:40:09;17.30;81.60
44707;DHT22;30433;45.596;8.408;2023-04-03T10:46:15;16.80;76.80
44707;DHT22;30433;45.596;8.408;2023-04-03T10:52:20;17.60;79.60
44707;DHT22;30433;45.596;8.408;2023-04-03T10:58:26;17.40;76.00
44707;DHT22;30433;45.596;8.408;2023-04-03T11:04:31;17.70;79.00
44707;DHT22;30433;45.596;8.408;2023-04-03T11:10:36;17.00;77.10
44707;DHT22;30433;45.596;8.408;2023-04-03T11:16:45;17.30;75.20
44707;DHT22;30433;45.596;8.408;2023-04-03T11:22:48;17.90;79.30
44707;DHT22;30433;45.596;8.408;2023-04-03T11:28:52;17.30;75.60
44707;DHT22;30433;45.596;8.408;2023-04-03T11:34:56;17.70;77.40
44707;DHT22;30433;45.596;8.408;2023-04-03T11:41:00;17.50;78.20
44707;DHT22;30433;45.596;8.408;2023-04-03T11:47:03;17.50;77.60
44707;DHT22;30433;45.596;8.408;2023-04-03T11:59:23;17.50;77.60
44707;DHT22;30433;45.596;8.408;2023-04-03T12:05:26;18.40;76.50
44707;DHT22;30433;45.596;8.408;2023-04-03T12:11:29;17.80;75.70
44707;DHT22;30433;45.596;8.408;2023-04-03T12:17:33;17.50;75.50
44707;DHT22;30433;45.596;8.408;2023-04-03T12:23:35;18.50;77.70
44707;DHT22;30433;45.596;8.408;2023-04-03T12:29:39;18.30;75.90
44707;DHT22;30433;45.596;8.408;2023-04-03T12:35:50;19.00;77.30
44707;DHT22;30433;45.596;8.408;2023-04-03T12:41:58;18.20;76.00
44707;DHT22;30433;45.596;8.408;2023-04-03T12:48:06;19.00;77.70
44707;DHT22;30433;45.596;8.408;2023-04-03T12:54:15;19.30;76.80
44707;DHT22;30433;45.596;8.408;2023-04-03T13:00:19;19.20;76.60
44707;DHT22;30433;45.596;8.408;2023-04-03T13:06:22;18.30;72.90
44707;DHT22;30433;45.596;8.408;2023-04-03T13:12:25;18.60;73.70
44707;DHT22;30433;45.596;8.408;2023-04-03T13:18:28;18.30;73.20
44707;DHT22;30433;45.596;8.408;2023-04-03T13:24:32;18.30;73.30
44707;DHT22;30433;45.596;8.408;2023-04-03T13:30:37;18.20;72.60
44707;DHT22;30433;45.596;8.408;2023-04-03T13:36:40;18.50;74.70
44707;DHT22;30433;45.596;8.408;2023-04-03T13:42:42;18.90;74.80
44707;DHT22;30433;45.596;8.408;2023-04-03T13:48:47;18.00;75.40
44707;DHT22;30433;45.596;8.408;2023-04-03T13:54:51;17.80;75.60
44707;DHT22;30433;45.596;8.408;2023-04-03T14:00:54;17.70;74.70
44707;DHT22;30433;45.596;8.408;2023-04-03T14:06:58;17.50;76.20
44707;DHT22;30433;45.596;8.408;2023-04-03T14:12:59;17.50;76.60
44707;DHT22;30433;45.596;8.408;2023-04-03T14:19:02;17.40;76.40
44707;DHT22;30433;45.596;8.408;2023-04-03T14:25:06;17.60;77.80
44707;DHT22;30433;45.596;8.408;2023-04-03T14:31:08;17.60;77.50
44707;DHT22;30433;45.596;8.408;2023-04-03T14:37:12;18.00;78.40
44707;DHT22;30433;45.596;8.408;2023-04-03T14:43:16;17.50;76.00
44707;DHT22;30433;45.596;8.408;2023-04-03T14:49:19;17.10;76.00
44707;DHT22;30433;45.596;8.408;2023-04-03T14:55:23;17.00;76.30
44707;DHT22;30433;45.596;8.408;2023-04-03T15:01:27;16.90;77.00
44707;DHT22;30433;45.596;8.408;2023-04-03T15:07:30;17.20;77.20
44707;DHT22;30433;45.596;8.408;2023-04-03T15:13:32;17.60;78.20
44707;DHT22;30433;45.596;8.408;2023-04-03T15:19:37;17.20;78.20
44707;DHT22;30433;45.596;8.408;2023-04-03T15:25:39;17.20;78.50
44707;DHT22;30433;45.596;8.408;2023-04-03T15:31:41;17.00;79.20
44707;DHT22;30433;45.596;8.408;2023-04-03T15:37:44;16.80;79.70
44707;DHT22;30433;45.596;8.408;2023-04-03T15:43:46;16.60;78.90
44707;DHT22;30433;45.596;8.408;2023-04-03T15:49:47;16.60;79.80
44707;DHT22;30433;45.596;8.408;2023-04-03T15:55:51;16.40;79.70
44707;DHT22;30433;45.596;8.408;2023-04-03T16:01:53;16.30;79.80
44707;DHT22;30433;45.596;8.408;2023-04-03T16:07:54;16.40;80.30
44707;DHT22;30433;45.596;8.408;2023-04-03T16:13:58;16.70;80.40
44707;DHT22;30433;45.596;8.408;2023-04-03T16:19:59;16.70;80.80
44707;DHT22;30433;45.596;8.408;2023-04-03T16:26:01;16.60;80.90
44707;DHT22;30433;45.596;8.408;2023-04-03T16:32:05;16.40;81.40
44707;DHT22;30433;45.596;8.408;2023-04-03T16:38:06;16.30;82.00
44707;DHT22;30433;45.596;8.408;2023-04-03T16:44:08;16.10;82.40
44707;DHT22;30433;45.596;8.408;2023-04-03T16:50:12;15.80;83.60
44707;DHT22;30433;45.596;8.408;2023-04-03T16:56:14;15.50;84.10
44707;DHT22;30433;45.596;8.408;2023-04-03T17:02:15;15.40;84.80
44707;DHT22;30433;45.596;8.408;2023-04-03T17:08:19;15.10;85.60
44707;DHT22;30433;45.596;8.408;2023-04-03T17:14:20;14.80;85.80
44707;DHT22;30433;45.596;8.408;2023-04-03T17:20:22;14.60;85.30
44707;DHT22;30433;45.596;8.408;2023-04-03T17:26:26;14.40;84.70
44707;DHT22;30433;45.596;8.408;2023-04-03T17:32:27;14.30;84.60
44707;DHT22;30433;45.596;8.408;2023-04-03T17:38:29;14.10;85.30
44707;DHT22;30433;45.596;8.408;2023-04-03T17:44:33;13.80;85.40
44707;DHT22;30433;45.596;8.408;2023-04-03T17:50:36;13.70;85.20
44707;DHT22;30433;45.596;8.408;2023-04-03T17:56:37;13.60;84.80
44707;DHT22;30433;45.596;8.408;2023-04-03T18:02:41;13.50;84.30
44707;DHT22;30433;45.596;8.408;2023-04-03T18:08:43;13.20;84.60
44707;DHT22;30433;45.596;8.408;2023-04-03T18:14:46;13.10;84.40
44707;DHT22;30433;45.596;8.408;2023-04-03T18:20:50;13.00;84.40
44707;DHT22;30433;45.596;8.408;2023-04-03T18:26:52;12.90;84.50
44707;DHT22;30433;45.596;8.408;2023-04-03T18:32:55;12.80;84.40
44707;DHT22;30433;45.596;8.408;2023-04-03T18:38:58;12.80;85.10
44707;DHT22;30433;45.596;8.408;2023-04-03T18:45:01;12.70;84.70
44707;DHT22;30433;45.596;8.408;2023-04-03T18:51:03;12.70;85.30
44707;DHT22;30433;45.596;8.408;2023-04-03T18:57:06;12.70;85.30
44707;DHT22;30433;45.596;8.408;2023-04-03T19:03:08;12.60;85.30
44707;DHT22;30433;45.596;8.408;2023-04-03T19:09:12;12.70;85.40
44707;DHT22;30433;45.596;8.408;2023-04-03T19:15:16;12.70;85.80
44707;DHT22;30433;45.596;8.408;2023-04-03T19:21:18;12.80;88.20
44707;DHT22;30433;45.596;8.408;2023-04-03T19:27:21;12.70;85.20
44707;DHT22;30433;45.596;8.408;2023-04-03T19:33:25;12.40;84.40
44707;DHT22;30433;45.596;8.408;2023-04-03T19:39:28;12.30;84.90
44707;DHT22;30433;45.596;8.408;2023-04-03T19:45:34;12.20;84.80
44707;DHT22;30433;45.596;8.408;2023-04-03T19:51:38;12.10;84.20
44707;DHT22;30433;45.596;8.408;2023-04-03T19:57:41;12.10;83.50
44707;DHT22;30433;45.596;8.408;2023-04-03T20:03:43;12.00;82.80
44707;DHT22;30433;45.596;8.408;2023-04-03T20:09:47;11.80;83.30
44707;DHT22;30433;45.596;8.408;2023-04-03T20:15:49;11.90;83.50
44707;DHT22;30433;45.596;8.408;2023-04-03T20:21:51;11.70;83.50
44707;DHT22;30433;45.596;8.408;2023-04-03T20:27:54;11.70;83.90
44707;DHT22;30433;45.596;8.408;2023-04-03T20:33:56;11.50;84.40
44707;DHT22;30433;45.596;8.408;2023-04-03T20:39:58;11.50;84.00
44707;DHT22;30433;45.596;8.408;2023-04-03T20:46:01;11.50;82.60
44707;DHT22;30433;45.596;8.408;2023-04-03T20:52:03;11.40;83.00
44707;DHT22;30433;45.596;8.408;2023-04-03T20:58:05;11.20;84.20
44707;DHT22;30433;45.596;8.408;2023-04-03T21:04:12;11.10;83.60
44707;DHT22;30433;45.596;8.408;2023-04-03T21:22:39;11.10;81.10
44707;DHT22;30433;45.596;8.408;2023-04-03T21:28:44;11.10;81.10
44707;DHT22;30433;45.596;8.408;2023-04-03T21:34:45;10.90;80.70
44707;DHT22;30433;45.596;8.408;2023-04-03T21:40:49;10.90;80.10
44707;DHT22;30433;45.596;8.408;2023-04-03T21:46:51;10.90;79.90
44707;DHT22;30433;45.596;8.408;2023-04-03T21:52:54;11.00;79.50
44707;DHT22;30433;45.596;8.408;2023-04-03T21:58:58;10.90;80.20
44707;DHT22;30433;45.596;8.408;2023-04-03T22:05:01;10.90;79.80
44707;DHT22;30433;45.596;8.408;2023-04-03T22:11:03;10.90;79.10
44707;DHT22;30433;45.596;8.408;2023-04-03T22:17:07;10.90;79.60
44707;DHT22;30433;45.596;8.408;2023-04-03T22:23:08;10.70;81.10
44707;DHT22;30433;45.596;8.408;2023-04-03T22:29:11;10.60;81.40
44707;DHT22;30433;45.596;8.408;2023-04-03T22:35:14;10.50;82.20
44707;DHT22;30433;45.596;8.408;2023-04-03T22:41:16;10.40;82.40
44707;DHT22;30433;45.596;8.408;2023-04-03T22:47:18;10.30;81.40
44707;DHT22;30433;45.596;8.408;2023-04-03T22:53:21;10.50;77.50
44707;DHT22;30433;45.596;8.408;2023-04-03T22:59:23;10.50;77.70
44707;DHT22;30433;45.596;8.408;2023-04-03T23:05:25;10.40;77.60
44707;DHT22;30433;45.596;8.408;2023-04-03T23:11:28;10.20;77.40
44707;DHT22;30433;45.596;8.408;2023-04-03T23:17:30;10.20;78.20
44707;DHT22;30433;45.596;8.408;2023-04-03T23:23:33;10.00;78.20
44707;DHT22;30433;45.596;8.408;2023-04-03T23:29:36;10.00;78.40
44707;DHT22;30433;45.596;8.408;2023-04-03T23:35:40;10.00;78.80
44707;DHT22;30433;45.596;8.408;2023-04-03T23:41:42;10.10;78.20
44707;DHT22;30433;45.596;8.408;2023-04-03T23:47:46;9.90;79.90
44707;DHT22;30433;45.596;8.408;2023-04-03T23:53:48;9.70;79.10
44707;DHT22;30433;45.596;8.408;2023-04-03T23:59:50;9.50;79.60
